sensor_id;sensor_type;location;lat;lon;timestamp;temperature;humidity
3784;DHT22;1907;49.238;9.262;2022-10-16T00:01:38;15.50;99.90
3784;DHT22;1907;49.238;9.262;2022-10-16T00:04:04;15.50;99.90
3784;DHT22;1907;49.238;9.262;2022-10-16T00:06:31;15.50;99.90
3784;DHT22;1907;49.238;9.262;2022-10-16T00:08:57;15.50;99.90
3784;DHT22;1907;49.238;9.262;2022-10-16T00:11:31;15.50;99.90
3784;DHT22;1907;49.238;9.262;2022-10-16T00:14:07;15.50;99.90
3784;DHT22;1907;49.238;9.262;2022-10-16T00:16:34;15.40;99.90
3784;DHT22;1907;49.238;9.262;2022-10-16T00:19:00;15.50;99.90
3784;DHT22;1907;49.238;9.262;2022-10-16T00:21:27;15.40;99.90
3784;DHT22;1907;49.238;9.262;2022-10-16T00:23:59;15.40;99.90
3784;DHT22;1907;49.238;9.262;2022-10-16T00:26:27;15.40;99.90
3784;DHT22;1907;49.238;9.262;2022-10-16T00:28:52;15.40;99.90
3784;DHT22;1907;49.238;9.262;2022-10-16T00:31:21;15.40;99.90
3784;DHT22;1907;49.238;9.262;2022-10-16T00:33:47;15.40;99.90
3784;DHT22;1907;49.238;9.262;2022-10-16T00:36:16;15.40;99.90
3784;DHT22;1907;49.238;9.262;2022-10-16T00:38:41;15.50;99.90
3784;DHT22;1907;49.238;9.262;2022-10-16T00:41:11;15.50;99.90
3784;DHT22;1907;49.238;9.262;2022-10-16T00:48:56;15.50;99.90
3784;DHT22;1907;49.238;9.262;2022-10-16T00:51:26;15.50;99.90
3784;DHT22;1907;49.238;9.262;2022-10-16T00:53:53;15.60;99.90
3784;DHT22;1907;49.238;9.262;2022-10-16T00:56:19;15.60;99.90
3784;DHT22;1907;49.238;9.262;2022-10-16T00:58:45;15.60;99.90
3784;DHT22;1907;49.238;9.262;2022-10-16T01:01:11;15.60;99.90
3784;DHT22;1907;49.238;9.262;2022-10-16T01:03:37;15.60;99.90
3784;DHT22;1907;49.238;9.262;2022-10-16T01:09:13;15.70;99.90
3784;DHT22;1907;49.238;9.262;2022-10-16T01:17:53;15.70;99.90
3784;DHT22;1907;49.238;9.262;2022-10-16T01:20:30;15.70;99.90
3784;DHT22;1907;49.238;9.262;2022-10-16T01:28:24;15.70;99.90
3784;DHT22;1907;49.238;9.262;2022-10-16T01:30:53;15.70;99.90
3784;DHT22;1907;49.238;9.262;2022-10-16T01:33:33;15.70;99.90
3784;DHT22;1907;49.238;9.262;2022-10-16T01:36:07;15.70;99.90
3784;DHT22;1907;49.238;9.262;2022-10-16T01:38:37;15.70;99.90
3784;DHT22;1907;49.238;9.262;2022-10-16T01:41:19;15.70;99.90
3784;DHT22;1907;49.238;9.262;2022-10-16T01:43:56;15.70;99.90
3784;DHT22;1907;49.238;9.262;2022-10-16T01:46:23;15.60;99.90
3784;DHT22;1907;49.238;9.262;2022-10-16T01:48:50;15.70;99.90
3784;DHT22;1907;49.238;9.262;2022-10-16T01:51:18;15.60;99.90
3784;DHT22;1907;49.238;9.262;2022-10-16T01:53:48;15.60;99.90
3784;DHT22;1907;49.238;9.262;2022-10-16T01:56:15;15.70;99.90
3784;DHT22;1907;49.238;9.262;2022-10-16T01:58:47;15.70;99.90
3784;DHT22;1907;49.238;9.262;2022-10-16T02:01:16;15.70;99.90
3784;DHT22;1907;49.238;9.262;2022-10-16T02:03:44;15.70;99.90
3784;DHT22;1907;49.238;9.262;2022-10-16T02:06:11;15.70;99.90
3784;DHT22;1907;49.238;9.262;2022-10-16T02:08:37;15.80;99.90
3784;DHT22;1907;49.238;9.262;2022-10-16T02:11:04;15.80;99.90
3784;DHT22;1907;49.238;9.262;2022-10-16T02:13:40;15.80;99.90
3784;DHT22;1907;49.238;9.262;2022-10-16T02:16:09;15.80;99.90
3784;DHT22;1907;49.238;9.262;2022-10-16T02:18:35;15.80;99.90
3784;DHT22;1907;49.238;9.262;2022-10-16T02:21:02;15.90;99.90
3784;DHT22;1907;49.238;9.262;2022-10-16T02:24:26;15.90;99.90
3784;DHT22;1907;49.238;9.262;2022-10-16T02:29:07;15.90;99.90
3784;DHT22;1907;49.238;9.262;2022-10-16T02:31:35;15.90;99.90
3784;DHT22;1907;49.238;9.262;2022-10-16T02:34:03;15.90;99.90
3784;DHT22;1907;49.238;9.262;2022-10-16T02:36:31;15.90;99.90
3784;DHT22;1907;49.238;9.262;2022-10-16T02:38:58;16.00;99.90
3784;DHT22;1907;49.238;9.262;2022-10-16T02:41:26;16.00;99.90
3784;DHT22;1907;49.238;9.262;2022-10-16T02:43:51;16.00;99.90
3784;DHT22;1907;49.238;9.262;2022-10-16T02:46:17;16.00;99.90
3784;DHT22;1907;49.238;9.262;2022-10-16T02:48:43;16.10;99.90
3784;DHT22;1907;49.238;9.262;2022-10-16T02:51:09;16.10;99.90
3784;DHT22;1907;49.238;9.262;2022-10-16T02:53:34;16.10;99.90
3784;DHT22;1907;49.238;9.262;2022-10-16T02:56:00;16.10;99.90
3784;DHT22;1907;49.238;9.262;2022-10-16T02:58:25;16.10;99.90
3784;DHT22;1907;49.238;9.262;2022-10-16T03:00:51;16.10;99.90
3784;DHT22;1907;49.238;9.262;2022-10-16T03:03:17;16.00;99.90
3784;DHT22;1907;49.238;9.262;2022-10-16T03:05:43;16.00;99.90
3784;DHT22;1907;49.238;9.262;2022-10-16T03:08:11;16.00;99.90
3784;DHT22;1907;49.238;9.262;2022-10-16T03:10:37;16.00;99.90
3784;DHT22;1907;49.238;9.262;2022-10-16T03:13:02;16.00;99.90
3784;DHT22;1907;49.238;9.262;2022-10-16T03:15:28;16.00;99.90
3784;DHT22;1907;49.238;9.262;2022-10-16T03:17:54;16.00;99.90
3784;DHT22;1907;49.238;9.262;2022-10-16T03:20:20;16.00;99.90
3784;DHT22;1907;49.238;9.262;2022-10-16T03:22:46;16.00;99.90
3784;DHT22;1907;49.238;9.262;2022-10-16T03:25:11;16.00;99.90
3784;DHT22;1907;49.238;9.262;2022-10-16T03:27:37;16.00;99.90
3784;DHT22;1907;49.238;9.262;2022-10-16T03:30:02;15.90;99.90
3784;DHT22;1907;49.238;9.262;2022-10-16T03:32:28;15.90;99.90
3784;DHT22;1907;49.238;9.262;2022-10-16T03:34:54;15.90;99.90
3784;DHT22;1907;49.238;9.262;2022-10-16T03:37:21;15.90;99.90
3784;DHT22;1907;49.238;9.262;2022-10-16T03:39:47;15.90;99.90
3784;DHT22;1907;49.238;9.262;2022-10-16T03:42:12;15.90;99.90
3784;DHT22;1907;49.238;9.262;2022-10-16T03:44:38;15.90;99.90
3784;DHT22;1907;49.238;9.262;2022-10-16T03:47:03;15.80;99.90
3784;DHT22;1907;49.238;9.262;2022-10-16T03:49:29;15.80;99.90
3784;DHT22;1907;49.238;9.262;2022-10-16T03:51:55;15.80;99.90
3784;DHT22;1907;49.238;9.262;2022-10-16T03:54:20;15.80;99.90
3784;DHT22;1907;49.238;9.262;2022-10-16T03:56:47;15.80;99.90
3784;DHT22;1907;49.238;9.262;2022-10-16T03:59:13;15.80;99.90
3784;DHT22;1907;49.238;9.262;2022-10-16T04:01:39;15.80;99.90
3784;DHT22;1907;49.238;9.262;2022-10-16T04:04:04;15.80;99.90
3784;DHT22;1907;49.238;9.262;2022-10-16T04:06:30;15.80;99.90
3784;DHT22;1907;49.238;9.262;2022-10-16T04:08:56;15.80;99.90
3784;DHT22;1907;49.238;9.262;2022-10-16T04:11:21;15.80;99.90
3784;DHT22;1907;49.238;9.262;2022-10-16T04:13:47;15.80;99.90
3784;DHT22;1907;49.238;9.262;2022-10-16T04:16:13;15.80;99.90
3784;DHT22;1907;49.238;9.262;2022-10-16T04:18:39;15.80;99.90
3784;DHT22;1907;49.238;9.262;2022-10-16T04:21:06;15.80;99.90
3784;DHT22;1907;49.238;9.262;2022-10-16T04:23:31;15.80;99.90
3784;DHT22;1907;49.238;9.262;2022-10-16T04:25:57;15.80;99.90
3784;DHT22;1907;49.238;9.262;2022-10-16T04:28:23;15.80;99.90
3784;DHT22;1907;49.238;9.262;2022-10-16T04:30:49;15.90;99.90
3784;DHT22;1907;49.238;9.262;2022-10-16T04:33:14;15.80;99.90
3784;DHT22;1907;49.238;9.262;2022-10-16T04:35:40;15.90;99.90
3784;DHT22;1907;49.238;9.262;2022-10-16T04:38:05;15.80;99.90
3784;DHT22;1907;49.238;9.262;2022-10-16T04:40:31;15.90;99.90
3784;DHT22;1907;49.238;9.262;2022-10-16T04:43:04;15.80;99.90
3784;DHT22;1907;49.238;9.262;2022-10-16T04:45:31;15.80;99.90
3784;DHT22;1907;49.238;9.262;2022-10-16T04:47:58;15.80;99.90
3784;DHT22;1907;49.238;9.262;2022-10-16T04:50:24;15.70;99.90
3784;DHT22;1907;49.238;9.262;2022-10-16T04:52:49;15.80;99.90
3784;DHT22;1907;49.238;9.262;2022-10-16T04:55:15;15.70;99.90
3784;DHT22;1907;49.238;9.262;2022-10-16T04:57:41;15.70;99.90
3784;DHT22;1907;49.238;9.262;2022-10-16T05:00:07;15.70;99.90
3784;DHT22;1907;49.238;9.262;2022-10-16T05:02:33;15.60;99.90
3784;DHT22;1907;49.238;9.262;2022-10-16T05:04:59;15.60;99.90
3784;DHT22;1907;49.238;9.262;2022-10-16T05:07:25;15.60;99.90
3784;DHT22;1907;49.238;9.262;2022-10-16T05:09:50;15.60;99.90
3784;DHT22;1907;49.238;9.262;2022-10-16T05:12:16;15.60;99.90
3784;DHT22;1907;49.238;9.262;2022-10-16T05:14:42;15.60;99.90
3784;DHT22;1907;49.238;9.262;2022-10-16T05:17:07;15.70;99.90
3784;DHT22;1907;49.238;9.262;2022-10-16T05:19:33;15.70;99.90
3784;DHT22;1907;49.238;9.262;2022-10-16T05:21:58;15.70;99.90
3784;DHT22;1907;49.238;9.262;2022-10-16T05:24:24;15.70;99.90
3784;DHT22;1907;49.238;9.262;2022-10-16T05:26:50;15.70;99.90
3784;DHT22;1907;49.238;9.262;2022-10-16T05:29:15;15.70;99.90
3784;DHT22;1907;49.238;9.262;2022-10-16T05:31:41;15.70;99.90
3784;DHT22;1907;49.238;9.262;2022-10-16T05:34:06;15.60;99.90
3784;DHT22;1907;49.238;9.262;2022-10-16T05:36:32;15.60;99.90
3784;DHT22;1907;49.238;9.262;2022-10-16T05:38:58;15.60;99.90
3784;DHT22;1907;49.238;9.262;2022-10-16T05:41:23;15.60;99.90
3784;DHT22;1907;49.238;9.262;2022-10-16T05:43:51;15.60;99.90
3784;DHT22;1907;49.238;9.262;2022-10-16T05:46:16;15.50;99.90
3784;DHT22;1907;49.238;9.262;2022-10-16T05:48:42;15.50;99.90
3784;DHT22;1907;49.238;9.262;2022-10-16T05:51:10;15.50;99.90
3784;DHT22;1907;49.238;9.262;2022-10-16T05:53:37;15.50;99.90
3784;DHT22;1907;49.238;9.262;2022-10-16T05:56:04;15.60;99.90
3784;DHT22;1907;49.238;9.262;2022-10-16T05:58:32;15.60;99.90
3784;DHT22;1907;49.238;9.262;2022-10-16T06:01:00;15.70;99.90
3784;DHT22;1907;49.238;9.262;2022-10-16T06:03:26;15.60;99.90
3784;DHT22;1907;49.238;9.262;2022-10-16T06:05:53;15.60;99.90
3784;DHT22;1907;49.238;9.262;2022-10-16T06:08:20;15.60;99.90
3784;DHT22;1907;49.238;9.262;2022-10-16T06:10:46;15.60;99.90
3784;DHT22;1907;49.238;9.262;2022-10-16T06:13:13;15.50;99.90
3784;DHT22;1907;49.238;9.262;2022-10-16T06:15:42;15.60;99.90
3784;DHT22;1907;49.238;9.262;2022-10-16T06:18:10;15.60;99.90
3784;DHT22;1907;49.238;9.262;2022-10-16T06:20:37;15.60;99.90
3784;DHT22;1907;49.238;9.262;2022-10-16T06:23:03;15.60;99.90
3784;DHT22;1907;49.238;9.262;2022-10-16T06:25:32;15.60;99.90
3784;DHT22;1907;49.238;9.262;2022-10-16T06:27:58;15.60;99.90
3784;DHT22;1907;49.238;9.262;2022-10-16T06:30:23;15.60;99.90
3784;DHT22;1907;49.238;9.262;2022-10-16T06:32:49;15.60;99.90
3784;DHT22;1907;49.238;9.262;2022-10-16T06:35:14;15.70;99.90
3784;DHT22;1907;49.238;9.262;2022-10-16T06:37:40;15.70;99.90
3784;DHT22;1907;49.238;9.262;2022-10-16T06:40:06;15.80;99.90
3784;DHT22;1907;49.238;9.262;2022-10-16T06:42:32;15.90;99.90
3784;DHT22;1907;49.238;9.262;2022-10-16T06:44:58;16.00;99.90
3784;DHT22;1907;49.238;9.262;2022-10-16T06:47:23;16.10;99.90
3784;DHT22;1907;49.238;9.262;2022-10-16T06:49:49;16.20;99.90
3784;DHT22;1907;49.238;9.262;2022-10-16T06:52:14;16.30;99.90
3784;DHT22;1907;49.238;9.262;2022-10-16T06:54:40;16.50;99.90
3784;DHT22;1907;49.238;9.262;2022-10-16T06:57:05;16.60;99.90
3784;DHT22;1907;49.238;9.262;2022-10-16T06:59:31;16.60;99.90
3784;DHT22;1907;49.238;9.262;2022-10-16T07:01:56;16.60;99.90
3784;DHT22;1907;49.238;9.262;2022-10-16T07:04:22;16.60;99.90
3784;DHT22;1907;49.238;9.262;2022-10-16T07:06:47;16.50;99.90
3784;DHT22;1907;49.238;9.262;2022-10-16T07:09:13;16.60;99.90
3784;DHT22;1907;49.238;9.262;2022-10-16T07:11:40;16.60;99.90
3784;DHT22;1907;49.238;9.262;2022-10-16T07:14:14;16.60;99.90
3784;DHT22;1907;49.238;9.262;2022-10-16T07:16:40;16.60;99.90
3784;DHT22;1907;49.238;9.262;2022-10-16T07:19:06;16.60;99.90
3784;DHT22;1907;49.238;9.262;2022-10-16T07:21:33;16.60;99.90
3784;DHT22;1907;49.238;9.262;2022-10-16T07:24:03;16.60;99.90
3784;DHT22;1907;49.238;9.262;2022-10-16T07:26:32;16.60;99.90
3784;DHT22;1907;49.238;9.262;2022-10-16T07:28:58;16.60;99.90
3784;DHT22;1907;49.238;9.262;2022-10-16T07:31:24;16.60;99.90
3784;DHT22;1907;49.238;9.262;2022-10-16T07:33:50;16.60;99.90
3784;DHT22;1907;49.238;9.262;2022-10-16T07:36:18;16.50;99.90
3784;DHT22;1907;49.238;9.262;2022-10-16T07:38:45;16.50;99.90
3784;DHT22;1907;49.238;9.262;2022-10-16T07:41:13;16.60;99.90
3784;DHT22;1907;49.238;9.262;2022-10-16T07:43:39;16.70;99.90
3784;DHT22;1907;49.238;9.262;2022-10-16T07:46:05;16.90;99.90
3784;DHT22;1907;49.238;9.262;2022-10-16T07:48:33;17.10;99.90
3784;DHT22;1907;49.238;9.262;2022-10-16T07:51:00;17.20;99.90
3784;DHT22;1907;49.238;9.262;2022-10-16T07:53:26;17.30;99.90
3784;DHT22;1907;49.238;9.262;2022-10-16T07:55:52;17.40;99.90
3784;DHT22;1907;49.238;9.262;2022-10-16T07:58:18;17.50;99.90
3784;DHT22;1907;49.238;9.262;2022-10-16T08:00:43;17.60;99.90
3784;DHT22;1907;49.238;9.262;2022-10-16T08:03:09;17.70;99.90
3784;DHT22;1907;49.238;9.262;2022-10-16T08:05:34;17.80;99.90
3784;DHT22;1907;49.238;9.262;2022-10-16T08:08:01;17.90;99.90
3784;DHT22;1907;49.238;9.262;2022-10-16T08:10:28;18.10;99.90
3784;DHT22;1907;49.238;9.262;2022-10-16T08:12:54;18.40;99.90
3784;DHT22;1907;49.238;9.262;2022-10-16T08:15:20;18.60;99.90
3784;DHT22;1907;49.238;9.262;2022-10-16T08:18:00;18.70;99.90
3784;DHT22;1907;49.238;9.262;2022-10-16T08:20:27;18.70;99.90
3784;DHT22;1907;49.238;9.262;2022-10-16T08:22:53;18.70;99.90
3784;DHT22;1907;49.238;9.262;2022-10-16T08:25:20;18.90;99.90
3784;DHT22;1907;49.238;9.262;2022-10-16T08:27:46;18.90;99.90
3784;DHT22;1907;49.238;9.262;2022-10-16T08:30:12;19.20;99.90
3784;DHT22;1907;49.238;9.262;2022-10-16T08:32:38;19.50;99.90
3784;DHT22;1907;49.238;9.262;2022-10-16T08:35:04;19.90;99.90
3784;DHT22;1907;49.238;9.262;2022-10-16T08:37:30;20.10;99.90
3784;DHT22;1907;49.238;9.262;2022-10-16T08:39:56;20.20;99.90
3784;DHT22;1907;49.238;9.262;2022-10-16T08:48:30;20.20;99.90
3784;DHT22;1907;49.238;9.262;2022-10-16T08:50:58;20.20;99.90
3784;DHT22;1907;49.238;9.262;2022-10-16T08:53:33;20.40;99.90
3784;DHT22;1907;49.238;9.262;2022-10-16T08:56:01;20.90;99.90
3784;DHT22;1907;49.238;9.262;2022-10-16T08:58:28;21.40;99.90
3784;DHT22;1907;49.238;9.262;2022-10-16T09:00:56;21.70;99.90
3784;DHT22;1907;49.238;9.262;2022-10-16T09:06:51;22.00;99.90
3784;DHT22;1907;49.238;9.262;2022-10-16T09:17:54;22.40;99.90
3784;DHT22;1907;49.238;9.262;2022-10-16T09:23:11;22.60;99.90
3784;DHT22;1907;49.238;9.262;2022-10-16T09:25:39;22.70;99.90
3784;DHT22;1907;49.238;9.262;2022-10-16T09:28:08;22.80;99.90
3784;DHT22;1907;49.238;9.262;2022-10-16T09:30:34;22.90;99.90
3784;DHT22;1907;49.238;9.262;2022-10-16T09:33:00;23.00;99.90
3784;DHT22;1907;49.238;9.262;2022-10-16T09:35:40;23.30;99.90
3784;DHT22;1907;49.238;9.262;2022-10-16T09:38:07;23.50;99.90
3784;DHT22;1907;49.238;9.262;2022-10-16T09:40:36;23.50;99.90
3784;DHT22;1907;49.238;9.262;2022-10-16T09:45:40;23.60;99.90
3784;DHT22;1907;49.238;9.262;2022-10-16T09:48:13;23.70;99.90
3784;DHT22;1907;49.238;9.262;2022-10-16T09:50:44;23.30;99.90
3784;DHT22;1907;49.238;9.262;2022-10-16T09:53:20;23.10;99.90
3784;DHT22;1907;49.238;9.262;2022-10-16T09:55:52;22.90;99.90
3784;DHT22;1907;49.238;9.262;2022-10-16T09:58:20;22.70;99.90
3784;DHT22;1907;49.238;9.262;2022-10-16T10:00:52;22.50;99.90
3784;DHT22;1907;49.238;9.262;2022-10-16T10:05:55;22.50;99.90
3784;DHT22;1907;49.238;9.262;2022-10-16T10:08:21;22.60;99.90
3784;DHT22;1907;49.238;9.262;2022-10-16T10:10:48;22.50;99.90
3784;DHT22;1907;49.238;9.262;2022-10-16T10:13:19;22.50;99.90
3784;DHT22;1907;49.238;9.262;2022-10-16T10:15:45;22.50;99.90
3784;DHT22;1907;49.238;9.262;2022-10-16T10:18:21;22.50;99.90
3784;DHT22;1907;49.238;9.262;2022-10-16T10:20:59;22.70;99.90
3784;DHT22;1907;49.238;9.262;2022-10-16T10:23:27;22.80;99.90
3784;DHT22;1907;49.238;9.262;2022-10-16T10:36:46;24.00;99.90
3784;DHT22;1907;49.238;9.262;2022-10-16T10:55:49;23.70;99.90
3784;DHT22;1907;49.238;9.262;2022-10-16T11:03:46;25.70;99.90
3784;DHT22;1907;49.238;9.262;2022-10-16T11:06:26;26.20;99.90
3784;DHT22;1907;49.238;9.262;2022-10-16T11:17:01;27.50;99.90
3784;DHT22;1907;49.238;9.262;2022-10-16T11:22:13;27.60;99.90
3784;DHT22;1907;49.238;9.262;2022-10-16T11:30:39;26.50;99.90
3784;DHT22;1907;49.238;9.262;2022-10-16T11:33:15;26.60;99.90
3784;DHT22;1907;49.238;9.262;2022-10-16T11:36:02;27.00;99.90
3784;DHT22;1907;49.238;9.262;2022-10-16T11:39:01;27.10;99.90
3784;DHT22;1907;49.238;9.262;2022-10-16T11:44:48;26.30;99.90
3784;DHT22;1907;49.238;9.262;2022-10-16T11:47:25;26.20;99.90
3784;DHT22;1907;49.238;9.262;2022-10-16T11:49:55;26.20;99.90
3784;DHT22;1907;49.238;9.262;2022-10-16T11:57:38;25.80;99.90
3784;DHT22;1907;49.238;9.262;2022-10-16T12:02:54;25.10;99.90
3784;DHT22;1907;49.238;9.262;2022-10-16T12:05:55;24.60;99.90
3784;DHT22;1907;49.238;9.262;2022-10-16T12:08:23;24.20;99.90
3784;DHT22;1907;49.238;9.262;2022-10-16T12:10:50;23.90;99.90
3784;DHT22;1907;49.238;9.262;2022-10-16T12:18:44;22.90;99.90
3784;DHT22;1907;49.238;9.262;2022-10-16T12:21:11;22.80;99.90
3784;DHT22;1907;49.238;9.262;2022-10-16T12:23:54;22.80;99.90
3784;DHT22;1907;49.238;9.262;2022-10-16T12:26:29;22.70;99.90
3784;DHT22;1907;49.238;9.262;2022-10-16T12:31:58;22.80;99.90
3784;DHT22;1907;49.238;9.262;2022-10-16T12:34:40;23.00;99.90
3784;DHT22;1907;49.238;9.262;2022-10-16T12:37:14;23.00;99.90
3784;DHT22;1907;49.238;9.262;2022-10-16T12:39:41;23.10;99.90
3784;DHT22;1907;49.238;9.262;2022-10-16T12:42:42;23.20;99.90
3784;DHT22;1907;49.238;9.262;2022-10-16T12:45:31;23.30;99.90
3784;DHT22;1907;49.238;9.262;2022-10-16T12:47:59;23.30;99.90
3784;DHT22;1907;49.238;9.262;2022-10-16T12:52:53;23.60;99.90
3784;DHT22;1907;49.238;9.262;2022-10-16T12:55:21;23.60;99.90
3784;DHT22;1907;49.238;9.262;2022-10-16T13:19:22;22.90;99.90
3784;DHT22;1907;49.238;9.262;2022-10-16T13:22:10;23.00;99.90
3784;DHT22;1907;49.238;9.262;2022-10-16T13:27:29;23.00;99.90
3784;DHT22;1907;49.238;9.262;2022-10-16T13:30:22;23.10;99.90
3784;DHT22;1907;49.238;9.262;2022-10-16T13:32:55;23.00;99.90
3784;DHT22;1907;49.238;9.262;2022-10-16T13:35:28;23.00;99.90
3784;DHT22;1907;49.238;9.262;2022-10-16T13:40:35;23.00;99.90
3784;DHT22;1907;49.238;9.262;2022-10-16T13:43:00;22.80;99.90
3784;DHT22;1907;49.238;9.262;2022-10-16T13:45:26;22.80;99.90
3784;DHT22;1907;49.238;9.262;2022-10-16T13:48:03;22.80;99.90
3784;DHT22;1907;49.238;9.262;2022-10-16T13:50:28;22.80;99.90
3784;DHT22;1907;49.238;9.262;2022-10-16T13:53:04;22.70;99.90
3784;DHT22;1907;49.238;9.262;2022-10-16T13:55:31;22.70;99.90
3784;DHT22;1907;49.238;9.262;2022-10-16T13:58:14;22.60;99.90
3784;DHT22;1907;49.238;9.262;2022-10-16T14:00:53;22.50;99.90
3784;DHT22;1907;49.238;9.262;2022-10-16T14:03:20;22.40;99.90
3784;DHT22;1907;49.238;9.262;2022-10-16T14:06:06;22.30;99.90
3784;DHT22;1907;49.238;9.262;2022-10-16T14:08:42;22.20;99.90
3784;DHT22;1907;49.238;9.262;2022-10-16T14:11:08;22.10;99.90
3784;DHT22;1907;49.238;9.262;2022-10-16T14:13:38;22.10;99.90
3784;DHT22;1907;49.238;9.262;2022-10-16T14:16:10;22.10;99.90
3784;DHT22;1907;49.238;9.262;2022-10-16T14:18:41;22.10;99.90
3784;DHT22;1907;49.238;9.262;2022-10-16T14:21:12;22.00;99.90
3784;DHT22;1907;49.238;9.262;2022-10-16T14:23:40;22.00;99.90
3784;DHT22;1907;49.238;9.262;2022-10-16T14:26:17;21.90;99.90
3784;DHT22;1907;49.238;9.262;2022-10-16T14:28:45;21.90;99.90
3784;DHT22;1907;49.238;9.262;2022-10-16T14:31:33;21.90;99.90
3784;DHT22;1907;49.238;9.262;2022-10-16T14:33:59;21.90;99.90
3784;DHT22;1907;49.238;9.262;2022-10-16T14:36:27;22.00;99.90
3784;DHT22;1907;49.238;9.262;2022-10-16T14:39:00;22.00;99.90
3784;DHT22;1907;49.238;9.262;2022-10-16T14:41:27;22.00;99.90
3784;DHT22;1907;49.238;9.262;2022-10-16T14:43:55;22.00;99.90
3784;DHT22;1907;49.238;9.262;2022-10-16T14:46:33;21.90;99.90
3784;DHT22;1907;49.238;9.262;2022-10-16T14:51:33;21.80;99.90
3784;DHT22;1907;49.238;9.262;2022-10-16T14:53:59;21.70;99.90
3784;DHT22;1907;49.238;9.262;2022-10-16T14:56:35;21.60;99.90
3784;DHT22;1907;49.238;9.262;2022-10-16T14:59:14;21.50;99.90
3784;DHT22;1907;49.238;9.262;2022-10-16T15:01:43;21.40;99.90
3784;DHT22;1907;49.238;9.262;2022-10-16T15:04:10;21.30;99.90
3784;DHT22;1907;49.238;9.262;2022-10-16T15:06:37;21.30;99.90
3784;DHT22;1907;49.238;9.262;2022-10-16T15:09:03;21.20;99.90
3784;DHT22;1907;49.238;9.262;2022-10-16T15:11:28;21.10;99.90
3784;DHT22;1907;49.238;9.262;2022-10-16T15:13:54;21.00;99.90
3784;DHT22;1907;49.238;9.262;2022-10-16T15:16:20;20.90;99.90
3784;DHT22;1907;49.238;9.262;2022-10-16T15:18:45;20.80;99.90
3784;DHT22;1907;49.238;9.262;2022-10-16T15:21:24;20.80;99.90
3784;DHT22;1907;49.238;9.262;2022-10-16T15:23:51;20.70;99.90
3784;DHT22;1907;49.238;9.262;2022-10-16T15:26:17;20.70;99.90
3784;DHT22;1907;49.238;9.262;2022-10-16T15:28:43;20.70;99.90
3784;DHT22;1907;49.238;9.262;2022-10-16T15:31:08;20.70;99.90
3784;DHT22;1907;49.238;9.262;2022-10-16T15:33:34;20.70;99.90
3784;DHT22;1907;49.238;9.262;2022-10-16T15:36:01;20.70;99.90
3784;DHT22;1907;49.238;9.262;2022-10-16T15:38:28;20.70;99.90
3784;DHT22;1907;49.238;9.262;2022-10-16T15:40:54;20.80;99.90
3784;DHT22;1907;49.238;9.262;2022-10-16T15:43:20;20.80;99.90
3784;DHT22;1907;49.238;9.262;2022-10-16T15:46:06;20.90;99.90
3784;DHT22;1907;49.238;9.262;2022-10-16T15:48:33;20.90;99.90
3784;DHT22;1907;49.238;9.262;2022-10-16T15:51:06;20.80;99.90
3784;DHT22;1907;49.238;9.262;2022-10-16T15:53:32;20.80;99.90
3784;DHT22;1907;49.238;9.262;2022-10-16T15:56:05;20.70;99.90
3784;DHT22;1907;49.238;9.262;2022-10-16T15:58:31;20.60;99.90
3784;DHT22;1907;49.238;9.262;2022-10-16T16:01:00;20.40;99.90
3784;DHT22;1907;49.238;9.262;2022-10-16T16:03:27;20.30;99.90
3784;DHT22;1907;49.238;9.262;2022-10-16T16:05:54;20.20;99.90
3784;DHT22;1907;49.238;9.262;2022-10-16T16:08:19;20.00;99.90
3784;DHT22;1907;49.238;9.262;2022-10-16T16:10:45;20.00;99.90
3784;DHT22;1907;49.238;9.262;2022-10-16T16:13:11;19.80;99.90
3784;DHT22;1907;49.238;9.262;2022-10-16T16:15:40;19.70;99.90
3784;DHT22;1907;49.238;9.262;2022-10-16T16:18:06;19.60;99.90
3784;DHT22;1907;49.238;9.262;2022-10-16T16:20:32;19.40;99.90
3784;DHT22;1907;49.238;9.262;2022-10-16T16:22:57;19.30;99.90
3784;DHT22;1907;49.238;9.262;2022-10-16T16:25:23;19.20;99.90
3784;DHT22;1907;49.238;9.262;2022-10-16T16:27:49;19.00;99.90
3784;DHT22;1907;49.238;9.262;2022-10-16T16:30:14;18.90;99.90
3784;DHT22;1907;49.238;9.262;2022-10-16T16:32:40;18.80;99.90
3784;DHT22;1907;49.238;9.262;2022-10-16T16:35:06;18.70;99.90
3784;DHT22;1907;49.238;9.262;2022-10-16T16:37:31;18.60;99.90
3784;DHT22;1907;49.238;9.262;2022-10-16T16:39:57;18.60;99.90
3784;DHT22;1907;49.238;9.262;2022-10-16T16:42:25;18.50;99.90
3784;DHT22;1907;49.238;9.262;2022-10-16T16:44:50;18.50;99.90
3784;DHT22;1907;49.238;9.262;2022-10-16T16:47:16;18.50;99.90
3784;DHT22;1907;49.238;9.262;2022-10-16T16:49:42;18.40;99.90
3784;DHT22;1907;49.238;9.262;2022-10-16T16:52:07;18.30;99.90
3784;DHT22;1907;49.238;9.262;2022-10-16T16:54:33;18.20;99.90
3784;DHT22;1907;49.238;9.262;2022-10-16T16:56:59;18.10;99.90
3784;DHT22;1907;49.238;9.262;2022-10-16T16:59:24;18.00;99.90
3784;DHT22;1907;49.238;9.262;2022-10-16T17:01:50;17.90;99.90
3784;DHT22;1907;49.238;9.262;2022-10-16T17:04:16;17.80;99.90
3784;DHT22;1907;49.238;9.262;2022-10-16T17:06:42;17.80;99.90
3784;DHT22;1907;49.238;9.262;2022-10-16T17:09:08;17.70;99.90
3784;DHT22;1907;49.238;9.262;2022-10-16T17:11:35;17.70;99.90
3784;DHT22;1907;49.238;9.262;2022-10-16T17:14:01;17.70;99.90
3784;DHT22;1907;49.238;9.262;2022-10-16T17:16:32;17.60;99.90
3784;DHT22;1907;49.238;9.262;2022-10-16T17:19:02;17.60;99.90
3784;DHT22;1907;49.238;9.262;2022-10-16T17:21:28;17.50;99.90
3784;DHT22;1907;49.238;9.262;2022-10-16T17:23:55;17.60;99.90
3784;DHT22;1907;49.238;9.262;2022-10-16T17:26:21;17.60;99.90
3784;DHT22;1907;49.238;9.262;2022-10-16T17:28:51;17.50;99.90
3784;DHT22;1907;49.238;9.262;2022-10-16T17:31:19;17.40;99.90
3784;DHT22;1907;49.238;9.262;2022-10-16T17:33:45;17.40;99.90
3784;DHT22;1907;49.238;9.262;2022-10-16T17:36:11;17.30;99.90
3784;DHT22;1907;49.238;9.262;2022-10-16T17:38:39;17.20;99.90
3784;DHT22;1907;49.238;9.262;2022-10-16T17:41:22;17.20;99.90
3784;DHT22;1907;49.238;9.262;2022-10-16T17:43:49;17.10;99.90
3784;DHT22;1907;49.238;9.262;2022-10-16T17:46:17;17.10;99.90
3784;DHT22;1907;49.238;9.262;2022-10-16T17:48:46;17.10;99.90
3784;DHT22;1907;49.238;9.262;2022-10-16T17:51:14;17.10;99.90
3784;DHT22;1907;49.238;9.262;2022-10-16T17:53:40;17.10;99.90
3784;DHT22;1907;49.238;9.262;2022-10-16T17:56:08;17.00;99.90
3784;DHT22;1907;49.238;9.262;2022-10-16T17:58:34;16.90;99.90
3784;DHT22;1907;49.238;9.262;2022-10-16T18:01:01;16.80;99.90
3784;DHT22;1907;49.238;9.262;2022-10-16T18:03:27;16.70;99.90
3784;DHT22;1907;49.238;9.262;2022-10-16T18:05:53;16.70;99.90
3784;DHT22;1907;49.238;9.262;2022-10-16T18:08:20;16.60;99.90
3784;DHT22;1907;49.238;9.262;2022-10-16T18:10:47;16.60;99.90
3784;DHT22;1907;49.238;9.262;2022-10-16T18:13:14;16.60;99.90
3784;DHT22;1907;49.238;9.262;2022-10-16T18:15:39;16.60;99.90
3784;DHT22;1907;49.238;9.262;2022-10-16T18:18:05;16.50;99.90
3784;DHT22;1907;49.238;9.262;2022-10-16T18:20:31;16.50;99.90
3784;DHT22;1907;49.238;9.262;2022-10-16T18:22:56;16.50;99.90
3784;DHT22;1907;49.238;9.262;2022-10-16T18:25:22;16.40;99.90
3784;DHT22;1907;49.238;9.262;2022-10-16T18:27:47;16.30;99.90
3784;DHT22;1907;49.238;9.262;2022-10-16T18:30:13;16.30;99.90
3784;DHT22;1907;49.238;9.262;2022-10-16T18:32:39;16.30;99.90
3784;DHT22;1907;49.238;9.262;2022-10-16T18:35:05;16.20;99.90
3784;DHT22;1907;49.238;9.262;2022-10-16T18:37:30;16.20;99.90
3784;DHT22;1907;49.238;9.262;2022-10-16T18:39:56;16.20;99.90